createdAt,value
2018-04-10T00:00:05.635Z,21.10
2018-04-10T00:00:38.138Z,21.10
2018-04-10T00:01:09.853Z,21.10
2018-04-10T00:01:41.586Z,21.10
2018-04-10T00:02:13.353Z,21.10
2018-04-10T00:02:45.805Z,21.10
2018-04-10T00:03:17.542Z,21.10
2018-04-10T00:03:49.280Z,21.10
2018-04-10T00:04:21.020Z,21.10
2018-04-10T00:04:53.502Z,21.10
2018-04-10T00:05:25.219Z,21.10
2018-04-10T00:05:57.706Z,21.10
2018-04-10T00:06:29.432Z,21.10
2018-04-10T00:07:01.180Z,21.10
2018-04-10T00:07:33.689Z,21.10
2018-04-10T00:08:05.431Z,21.10
2018-04-10T00:08:37.167Z,21.20
2018-04-10T00:09:08.886Z,21.10
2018-04-10T00:09:40.657Z,21.10
2018-04-10T00:10:12.388Z,21.10
2018-04-10T00:10:44.114Z,21.10
2018-04-10T00:11:15.841Z,21.10
2018-04-10T00:11:48.342Z,21.10
2018-04-10T00:12:20.072Z,21.10
2018-04-10T00:12:51.797Z,21.10
2018-04-10T00:13:23.538Z,21.10
2018-04-10T00:13:55.265Z,21.10
2018-04-10T00:14:27.005Z,21.10
2018-04-10T00:14:58.740Z,21.10
2018-04-10T00:15:30.459Z,21.10
2018-04-10T00:16:02.254Z,21.10
2018-04-10T00:16:34.764Z,21.10
2018-04-10T00:17:06.493Z,21.10
2018-04-10T00:17:38.219Z,21.10
2018-04-10T00:18:10.713Z,21.20
2018-04-10T00:18:42.454Z,21.10
2018-04-10T00:19:14.170Z,21.10
2018-04-10T00:19:45.930Z,21.10
2018-04-10T00:20:17.658Z,21.10
2018-04-10T00:20:50.386Z,21.10
2018-04-10T00:21:22.178Z,21.10
2018-04-10T00:21:53.868Z,21.10
2018-04-10T00:22:25.617Z,21.20
2018-04-10T00:22:57.356Z,21.20
2018-04-10T00:23:29.134Z,21.10
2018-04-10T00:24:01.626Z,21.10
2018-04-10T00:24:33.346Z,21.10
2018-04-10T00:25:05.843Z,21.10
2018-04-10T00:25:37.564Z,21.10
2018-04-10T00:26:09.287Z,21.10
2018-04-10T00:26:41.779Z,21.10
2018-04-10T00:27:13.524Z,21.10
2018-04-10T00:27:45.265Z,21.10
2018-04-10T00:28:16.997Z,21.10
2018-04-10T00:28:49.476Z,21.10
2018-04-10T00:29:21.205Z,21.10
2018-04-10T00:29:53.685Z,21.10
2018-04-10T00:30:25.428Z,21.10
2018-04-10T00:30:57.255Z,21.10
2018-04-10T00:31:28.982Z,21.10
2018-04-10T00:32:01.465Z,21.20
2018-04-10T00:32:33.204Z,21.10
2018-04-10T00:33:04.950Z,21.10
2018-04-10T00:33:36.678Z,21.10
2018-04-10T00:34:09.166Z,21.10
2018-04-10T00:34:40.906Z,21.10
2018-04-10T00:35:13.366Z,21.10
2018-04-10T00:35:45.093Z,21.10
2018-04-10T00:36:16.837Z,21.10
2018-04-10T00:36:48.585Z,21.10
2018-04-10T00:37:21.093Z,21.10
2018-04-10T00:37:52.808Z,21.10
2018-04-10T00:38:24.647Z,21.10
2018-04-10T00:38:57.141Z,21.10
2018-04-10T00:39:28.869Z,21.10
2018-04-10T00:40:00.584Z,21.10
2018-04-10T00:40:33.089Z,21.10
2018-04-10T00:41:04.816Z,21.10
2018-04-10T00:41:36.552Z,21.10
2018-04-10T00:42:08.270Z,21.10
2018-04-10T00:42:40.814Z,21.10
2018-04-10T00:43:12.553Z,21.10
2018-04-10T00:43:44.280Z,21.10
2018-04-10T00:44:16.014Z,21.10
2018-04-10T00:44:47.757Z,21.10
2018-04-10T00:45:19.473Z,21.10
2018-04-10T00:45:51.219Z,21.10
2018-04-10T00:46:23.065Z,21.10
2018-04-10T00:46:54.791Z,21.10
2018-04-10T00:47:27.290Z,21.10
2018-04-10T00:47:59.017Z,21.10
2018-04-10T00:48:30.764Z,21.10
2018-04-10T00:49:02.496Z,21.10
2018-04-10T00:49:34.982Z,21.10
2018-04-10T00:50:06.704Z,21.10
2018-04-10T00:50:38.441Z,21.10
2018-04-10T00:51:10.944Z,21.10
2018-04-10T00:51:42.663Z,21.10
2018-04-10T00:52:14.440Z,21.00
2018-04-10T00:52:46.146Z,21.10
2018-04-10T00:53:17.945Z,21.30
2018-04-10T00:53:49.702Z,21.00
2018-04-10T00:54:21.456Z,21.00
2018-04-10T00:54:53.176Z,21.10
2018-04-10T00:55:24.898Z,21.10
2018-04-10T00:55:56.622Z,21.10
2018-04-10T00:56:28.344Z,21.10
2018-04-10T00:57:00.080Z,21.10
2018-04-10T00:57:31.785Z,21.10
2018-04-10T00:58:03.539Z,21.10
2018-04-10T00:58:35.264Z,21.10
2018-04-10T00:59:06.983Z,21.10
2018-04-10T00:59:38.730Z,21.10
2018-04-10T01:00:10.453Z,21.10
2018-04-10T01:00:42.949Z,21.10
2018-04-10T01:01:14.668Z,21.10
2018-04-10T01:01:47.159Z,21.00
2018-04-10T01:02:18.882Z,21.00
2018-04-10T01:02:50.628Z,21.10
2018-04-10T01:03:22.349Z,21.00
2018-04-10T01:03:54.862Z,21.10
2018-04-10T01:04:26.641Z,21.00
2018-04-10T01:04:58.401Z,21.10
2018-04-10T01:05:30.909Z,21.10
2018-04-10T01:06:02.638Z,21.10
2018-04-10T01:06:34.374Z,21.10
2018-04-10T01:07:06.110Z,21.00
2018-04-10T01:07:37.841Z,21.10
2018-04-10T01:08:10.328Z,21.00
2018-04-10T01:08:42.057Z,21.00
2018-04-10T01:09:13.793Z,21.10
2018-04-10T01:09:46.402Z,21.00
2018-04-10T01:10:18.094Z,21.00
2018-04-10T01:10:50.596Z,21.00
2018-04-10T01:11:22.320Z,21.00
2018-04-10T01:11:54.045Z,21.00
2018-04-10T01:12:26.550Z,21.00
2018-04-10T01:12:58.371Z,21.10
2018-04-10T01:13:30.897Z,21.10
2018-04-10T01:14:02.618Z,21.00
2018-04-10T01:14:34.357Z,21.00
2018-04-10T01:15:06.092Z,21.00
2018-04-10T01:15:37.813Z,21.00
2018-04-10T01:16:10.314Z,21.00
2018-04-10T01:16:42.107Z,21.00
2018-04-10T01:17:14.618Z,21.00
2018-04-10T01:17:46.326Z,21.00
2018-04-10T01:18:18.900Z,21.00
2018-04-10T01:18:50.621Z,21.00
2018-04-10T01:19:23.119Z,21.00
2018-04-10T01:19:54.871Z,21.00
2018-04-10T01:20:26.573Z,21.00
2018-04-10T01:20:59.061Z,21.00
2018-04-10T01:21:30.785Z,21.00
2018-04-10T01:22:03.311Z,21.00
2018-04-10T01:22:35.081Z,21.00
2018-04-10T01:23:06.770Z,21.00
2018-04-10T01:23:38.543Z,21.00
2018-04-10T01:24:10.339Z,21.00
2018-04-10T01:24:42.816Z,21.10
2018-04-10T01:25:14.547Z,21.00
2018-04-10T01:25:46.284Z,21.00
2018-04-10T01:26:18.857Z,21.00
2018-04-10T01:26:50.585Z,21.10
2018-04-10T01:27:22.306Z,21.10
2018-04-10T01:27:54.813Z,21.10
2018-04-10T01:28:26.553Z,21.10
2018-04-10T01:28:58.274Z,21.10
2018-04-10T01:29:30.770Z,21.10
2018-04-10T01:30:02.508Z,21.10
2018-04-10T01:30:34.246Z,21.10
2018-04-10T01:31:05.956Z,21.00
2018-04-10T01:31:38.446Z,21.00
2018-04-10T01:32:10.173Z,21.00
2018-04-10T01:32:42.663Z,21.00
2018-04-10T01:33:14.393Z,21.00
2018-04-10T01:33:46.138Z,21.00
2018-04-10T01:34:17.866Z,21.00
2018-04-10T01:34:50.357Z,21.00
2018-04-10T01:35:22.094Z,21.00
2018-04-10T01:35:53.855Z,21.00
2018-04-10T01:36:25.555Z,21.00
2018-04-10T01:36:58.051Z,21.00
2018-04-10T01:37:29.803Z,21.00
2018-04-10T01:38:01.493Z,21.00
2018-04-10T01:38:33.224Z,21.00
2018-04-10T01:39:04.963Z,21.00
2018-04-10T01:39:36.860Z,21.00
2018-04-10T01:40:08.844Z,21.00
2018-04-10T01:40:40.586Z,21.00
2018-04-10T01:41:12.298Z,21.00
2018-04-10T01:41:44.017Z,21.00
2018-04-10T01:42:16.522Z,21.00
2018-04-10T01:42:48.257Z,21.00
2018-04-10T01:43:19.979Z,21.00
2018-04-10T01:43:52.462Z,21.00
2018-04-10T01:44:24.192Z,21.00
2018-04-10T01:44:55.925Z,21.00
2018-04-10T01:45:28.428Z,21.00
2018-04-10T01:46:00.142Z,21.00
2018-04-10T01:46:31.870Z,21.00
2018-04-10T01:47:04.364Z,21.00
2018-04-10T01:47:36.091Z,21.00
2018-04-10T01:48:08.596Z,21.00
2018-04-10T01:48:40.429Z,21.00
2018-04-10T01:49:12.132Z,21.00
2018-04-10T01:49:44.637Z,21.00
2018-04-10T01:50:16.358Z,21.00
2018-04-10T01:50:48.092Z,21.00
2018-04-10T01:51:19.829Z,21.00
2018-04-10T01:51:52.330Z,21.00
2018-04-10T01:52:24.084Z,21.00
2018-04-10T01:52:55.809Z,21.00
2018-04-10T01:53:27.542Z,21.00
2018-04-10T01:53:59.269Z,21.00
2018-04-10T01:54:31.782Z,21.00
2018-04-10T01:55:03.513Z,21.00
2018-04-10T01:55:35.262Z,21.00
2018-04-10T01:56:06.954Z,21.00
2018-04-10T01:56:39.459Z,21.00
2018-04-10T01:57:11.178Z,21.00
2018-04-10T01:57:43.682Z,21.00
2018-04-10T01:58:15.397Z,21.00
2018-04-10T01:58:47.150Z,21.00
2018-04-10T01:59:18.883Z,21.00
2018-04-10T01:59:50.597Z,21.00
2018-04-10T02:00:23.107Z,21.00
2018-04-10T02:00:54.833Z,21.00
2018-04-10T02:01:26.557Z,21.00
2018-04-10T02:01:59.059Z,21.00
2018-04-10T02:02:30.785Z,21.00
2018-04-10T02:03:02.528Z,21.00
2018-04-10T02:03:34.253Z,21.00
2018-04-10T02:04:06.738Z,21.00
2018-04-10T02:04:38.497Z,21.00
2018-04-10T02:05:10.232Z,21.00
2018-04-10T02:05:41.956Z,21.00
2018-04-10T02:06:13.687Z,21.00
2018-04-10T02:06:46.190Z,21.00
2018-04-10T02:07:17.996Z,21.00
2018-04-10T02:07:50.511Z,21.00
2018-04-10T02:08:22.228Z,21.00
2018-04-10T02:08:53.964Z,21.00
2018-04-10T02:09:25.692Z,21.00
2018-04-10T02:09:58.178Z,21.00
2018-04-10T02:10:29.904Z,21.00
2018-04-10T02:11:02.450Z,21.00
2018-04-10T02:11:34.147Z,21.00
2018-04-10T02:12:05.896Z,21.00
2018-04-10T02:12:37.636Z,21.00
2018-04-10T02:13:09.364Z,21.00
2018-04-10T02:13:41.096Z,21.00
2018-04-10T02:14:12.838Z,21.00
2018-04-10T02:14:45.345Z,21.00
2018-04-10T02:15:17.076Z,21.00
2018-04-10T02:15:48.807Z,21.00
2018-04-10T02:16:20.541Z,21.00
2018-04-10T02:16:52.266Z,21.00
2018-04-10T02:17:24.761Z,21.00
2018-04-10T02:17:56.529Z,21.00
2018-04-10T02:18:28.258Z,21.00
2018-04-10T02:18:59.977Z,21.00
2018-04-10T02:19:31.722Z,21.00
2018-04-10T02:20:03.469Z,21.00
2018-04-10T02:20:35.188Z,21.00
2018-04-10T02:21:07.708Z,21.00
2018-04-10T02:21:39.453Z,21.00
2018-04-10T02:22:11.180Z,21.00
2018-04-10T02:22:42.907Z,21.00
2018-04-10T02:23:14.654Z,21.00
2018-04-10T02:23:47.149Z,21.00
2018-04-10T02:24:18.885Z,21.00
2018-04-10T02:24:50.622Z,21.00
2018-04-10T02:25:22.383Z,21.00
2018-04-10T02:25:54.114Z,21.00
2018-04-10T02:26:25.842Z,21.00
2018-04-10T02:26:57.585Z,21.00
2018-04-10T02:27:29.376Z,20.90
2018-04-10T02:28:01.093Z,21.00
2018-04-10T02:28:32.832Z,21.00
2018-04-10T02:29:04.574Z,21.00
2018-04-10T02:29:36.309Z,21.00
2018-04-10T02:30:08.050Z,21.00
2018-04-10T02:30:39.819Z,21.00
2018-04-10T02:31:11.530Z,21.00
2018-04-10T02:31:43.246Z,21.00
2018-04-10T02:32:15.021Z,21.00
2018-04-10T02:32:47.502Z,21.00
2018-04-10T02:33:19.234Z,21.00
2018-04-10T02:33:50.975Z,21.00
2018-04-10T02:34:22.680Z,21.00
2018-04-10T02:34:54.396Z,21.00
2018-04-10T02:35:26.135Z,21.00
2018-04-10T02:35:57.861Z,21.00
2018-04-10T02:36:29.597Z,21.00
2018-04-10T02:37:01.332Z,21.00
2018-04-10T02:37:33.816Z,21.00
2018-04-10T02:38:05.547Z,21.00
2018-04-10T02:38:37.273Z,21.00
2018-04-10T02:39:09.872Z,21.00
2018-04-10T02:39:42.337Z,21.00
2018-04-10T02:40:14.070Z,21.00
2018-04-10T02:40:45.805Z,21.00
2018-04-10T02:41:17.536Z,21.00
2018-04-10T02:41:50.023Z,21.00
2018-04-10T02:42:21.763Z,21.00
2018-04-10T02:42:53.508Z,21.00
2018-04-10T02:43:25.215Z,21.00
2018-04-10T02:43:57.706Z,21.00
2018-04-10T02:44:29.431Z,21.00
2018-04-10T02:45:01.946Z,21.00
2018-04-10T02:45:33.638Z,21.00
2018-04-10T02:46:05.373Z,21.00
2018-04-10T02:46:37.870Z,21.00
2018-04-10T02:47:09.615Z,20.90
2018-04-10T02:47:41.339Z,21.00
2018-04-10T02:48:13.084Z,21.00
2018-04-10T02:48:44.856Z,21.00
2018-04-10T02:49:16.549Z,21.00
2018-04-10T02:49:49.062Z,21.00
2018-04-10T02:50:20.789Z,21.00
2018-04-10T02:50:52.520Z,21.00
2018-04-10T02:51:24.249Z,21.00
2018-04-10T02:51:56.752Z,21.00
2018-04-10T02:52:28.464Z,21.00
2018-04-10T02:53:00.215Z,21.00
2018-04-10T02:53:31.946Z,21.00
2018-04-10T02:54:04.445Z,21.00
2018-04-10T02:54:36.167Z,21.00
2018-04-10T02:55:07.894Z,21.00
2018-04-10T02:55:40.387Z,21.00
2018-04-10T02:56:12.135Z,21.00
2018-04-10T02:56:43.886Z,21.00
2018-04-10T02:57:15.601Z,21.00
2018-04-10T02:57:47.376Z,21.00
2018-04-10T02:58:19.107Z,21.00
2018-04-10T02:58:50.836Z,21.00
2018-04-10T02:59:22.680Z,20.90
2018-04-10T02:59:54.427Z,20.40
2018-04-10T03:00:26.946Z,20.90
2018-04-10T03:00:58.664Z,20.90
2018-04-10T03:01:30.514Z,20.90
2018-04-10T03:02:02.230Z,20.90
2018-04-10T03:02:33.942Z,20.90
2018-04-10T03:03:05.661Z,20.90
2018-04-10T03:03:37.412Z,20.90
2018-04-10T03:04:09.125Z,20.90
2018-04-10T03:04:40.842Z,20.90
2018-04-10T03:05:12.587Z,20.90
2018-04-10T03:05:45.060Z,20.90
2018-04-10T03:06:16.794Z,20.90
2018-04-10T03:06:48.528Z,20.90
2018-04-10T03:07:21.057Z,20.90
2018-04-10T03:07:52.796Z,20.90
2018-04-10T03:08:24.529Z,20.90
2018-04-10T03:08:56.266Z,20.90
2018-04-10T03:09:27.988Z,20.90
2018-04-10T03:09:59.721Z,20.90
2018-04-10T03:10:31.458Z,20.90
2018-04-10T03:11:03.190Z,20.90
2018-04-10T03:11:35.688Z,20.90
2018-04-10T03:12:07.436Z,20.90
2018-04-10T03:12:39.153Z,20.90
2018-04-10T03:13:10.890Z,20.90
2018-04-10T03:13:43.391Z,20.90
2018-04-10T03:14:15.122Z,20.90
2018-04-10T03:14:46.858Z,20.90
2018-04-10T03:15:19.335Z,20.90
2018-04-10T03:15:51.062Z,20.90
2018-04-10T03:16:22.793Z,20.90
2018-04-10T03:16:55.290Z,20.90
2018-04-10T03:17:27.011Z,20.90
2018-04-10T03:17:58.765Z,20.90
2018-04-10T03:18:30.496Z,20.90
2018-04-10T03:19:02.998Z,21.00
2018-04-10T03:19:34.735Z,21.00
2018-04-10T03:20:06.496Z,21.00
2018-04-10T03:20:38.225Z,21.00
2018-04-10T03:21:09.958Z,21.00
2018-04-10T03:21:41.730Z,20.90
2018-04-10T03:22:13.437Z,21.00
2018-04-10T03:22:45.170Z,21.00
2018-04-10T03:23:16.924Z,20.90
2018-04-10T03:23:49.394Z,20.90
2018-04-10T03:24:21.130Z,20.90
2018-04-10T03:24:52.893Z,21.00
2018-04-10T03:25:25.348Z,20.90
2018-04-10T03:25:57.082Z,20.90
2018-04-10T03:26:28.813Z,20.90
2018-04-10T03:27:00.533Z,21.00
2018-04-10T03:27:32.256Z,20.90
2018-04-10T03:28:03.993Z,20.90
2018-04-10T03:28:35.710Z,20.90
2018-04-10T03:29:07.449Z,20.90
2018-04-10T03:29:39.200Z,20.90
2018-04-10T03:30:10.983Z,20.90
2018-04-10T03:30:42.715Z,20.90
2018-04-10T03:31:14.445Z,20.90
2018-04-10T03:31:46.188Z,20.90
2018-04-10T03:32:17.925Z,20.90
2018-04-10T03:32:49.665Z,20.90
2018-04-10T03:33:21.393Z,20.90
2018-04-10T03:33:53.127Z,20.90
2018-04-10T03:34:25.622Z,20.90
2018-04-10T03:34:57.348Z,20.90
2018-04-10T03:35:29.080Z,20.90
2018-04-10T03:36:00.807Z,20.90
2018-04-10T03:36:33.305Z,20.90
2018-04-10T03:37:05.064Z,20.90
2018-04-10T03:37:36.761Z,20.90
2018-04-10T03:38:09.270Z,20.90
2018-04-10T03:38:41.017Z,20.90
2018-04-10T03:39:12.725Z,20.90
2018-04-10T03:39:44.454Z,20.90
2018-04-10T03:40:16.959Z,20.90
2018-04-10T03:40:48.662Z,20.90
2018-04-10T03:41:21.168Z,20.90
2018-04-10T03:41:52.891Z,20.90
2018-04-10T03:42:24.638Z,20.90
2018-04-10T03:42:56.357Z,20.90
2018-04-10T03:43:28.851Z,20.90
2018-04-10T03:44:00.588Z,20.90
2018-04-10T03:44:32.451Z,20.90
2018-04-10T03:45:04.928Z,20.90
2018-04-10T03:45:36.733Z,20.90
2018-04-10T03:46:08.448Z,20.90
2018-04-10T03:46:40.186Z,20.90
2018-04-10T03:47:11.947Z,20.90
2018-04-10T03:47:44.462Z,20.90
2018-04-10T03:48:16.190Z,20.90
2018-04-10T03:48:47.933Z,20.90
2018-04-10T03:49:19.654Z,20.90
2018-04-10T03:49:52.147Z,20.90
2018-04-10T03:50:23.872Z,20.90
2018-04-10T03:50:55.608Z,20.90
2018-04-10T03:51:27.368Z,20.90
2018-04-10T03:51:59.826Z,20.80
2018-04-10T03:52:31.552Z,20.80
2018-04-10T03:53:03.292Z,20.90
2018-04-10T03:53:35.779Z,20.90
2018-04-10T03:54:07.505Z,20.80
2018-04-10T03:54:39.247Z,20.90
2018-04-10T03:55:10.974Z,20.80
2018-04-10T03:55:43.498Z,20.80
2018-04-10T03:56:15.215Z,20.90
2018-04-10T03:56:46.941Z,20.80
2018-04-10T03:57:18.677Z,20.90
2018-04-10T03:57:51.170Z,20.90
2018-04-10T03:58:22.897Z,20.90
2018-04-10T03:58:55.390Z,20.90
2018-04-10T03:59:27.124Z,20.90
2018-04-10T03:59:58.867Z,20.90
2018-04-10T04:00:30.586Z,20.90
2018-04-10T04:01:03.127Z,20.90
2018-04-10T04:01:34.868Z,20.90
2018-04-10T04:02:06.606Z,20.80
2018-04-10T04:02:38.337Z,20.80
2018-04-10T04:03:10.150Z,20.80
2018-04-10T04:03:41.877Z,20.80
2018-04-10T04:04:13.607Z,20.80
2018-04-10T04:04:46.102Z,20.80
2018-04-10T04:05:17.827Z,20.80
2018-04-10T04:05:49.562Z,20.90
2018-04-10T04:06:22.073Z,20.80
2018-04-10T04:06:53.813Z,20.90
2018-04-10T04:07:25.546Z,20.90
2018-04-10T04:07:57.397Z,20.90
2018-04-10T04:08:29.869Z,20.90
2018-04-10T04:09:01.614Z,20.90
2018-04-10T04:09:33.353Z,20.90
2018-04-10T04:10:05.084Z,20.90
2018-04-10T04:10:36.806Z,20.90
2018-04-10T04:11:09.375Z,20.90
2018-04-10T04:11:41.098Z,20.90
2018-04-10T04:12:13.601Z,20.90
2018-04-10T04:12:45.422Z,20.80
2018-04-10T04:13:17.224Z,20.80
2018-04-10T04:13:48.963Z,20.80
2018-04-10T04:14:20.690Z,20.90
2018-04-10T04:14:52.434Z,20.80
2018-04-10T04:15:24.153Z,20.90
2018-04-10T04:15:55.878Z,20.80
2018-04-10T04:16:28.389Z,20.80
2018-04-10T04:17:00.118Z,20.80
2018-04-10T04:17:31.931Z,20.80
2018-04-10T04:18:04.423Z,20.90
2018-04-10T04:18:36.158Z,20.90
2018-04-10T04:19:07.915Z,20.90
2018-04-10T04:19:39.632Z,20.90
2018-04-10T04:20:11.366Z,20.90
2018-04-10T04:20:43.893Z,20.90
2018-04-10T04:21:15.598Z,20.90
2018-04-10T04:21:47.321Z,20.90
2018-04-10T04:22:19.830Z,20.80
2018-04-10T04:22:51.566Z,20.80
2018-04-10T04:23:23.268Z,20.90
2018-04-10T04:23:55.757Z,20.90
2018-04-10T04:24:27.489Z,20.90
2018-04-10T04:24:59.245Z,20.90
2018-04-10T04:25:31.002Z,21.00
2018-04-10T04:26:03.495Z,21.00
2018-04-10T04:26:35.240Z,21.00
2018-04-10T04:27:06.958Z,21.00
2018-04-10T04:27:38.679Z,21.00
2018-04-10T04:28:10.459Z,21.00
2018-04-10T04:28:42.164Z,21.00
2018-04-10T04:29:14.161Z,21.00
2018-04-10T04:29:45.878Z,21.00
2018-04-10T04:30:17.580Z,21.00
2018-04-10T04:30:50.082Z,21.00
2018-04-10T04:31:21.830Z,21.00
2018-04-10T04:31:54.287Z,21.00
2018-04-10T04:32:26.014Z,21.00
2018-04-10T04:32:57.728Z,21.00
2018-04-10T04:33:30.224Z,21.00
2018-04-10T04:34:01.948Z,21.00
2018-04-10T04:34:34.859Z,21.00
2018-04-10T04:35:06.569Z,21.00
2018-04-10T04:35:39.078Z,21.00
2018-04-10T04:36:10.806Z,21.00
2018-04-10T04:36:42.756Z,21.00
2018-04-10T04:37:14.897Z,21.00
2018-04-10T04:37:46.632Z,21.00
2018-04-10T04:38:18.362Z,21.00
2018-04-10T04:38:50.857Z,20.90
2018-04-10T04:39:22.596Z,20.90
2018-04-10T04:39:54.350Z,21.00
2018-04-10T04:40:26.089Z,20.90
2018-04-10T04:40:57.802Z,21.00
2018-04-10T04:41:29.549Z,21.00
2018-04-10T04:42:01.278Z,21.00
2018-04-10T04:42:33.780Z,21.00
2018-04-10T04:43:05.505Z,21.00
2018-04-10T04:43:37.240Z,21.00
2018-04-10T04:44:09.719Z,21.00
2018-04-10T04:44:41.437Z,21.00
2018-04-10T04:45:13.954Z,21.00
2018-04-10T04:45:45.673Z,21.00
2018-04-10T04:46:17.402Z,21.00
2018-04-10T04:46:49.127Z,21.10
2018-04-10T04:47:21.632Z,21.10
2018-04-10T04:47:53.354Z,21.10
2018-04-10T04:48:25.091Z,21.10
2018-04-10T04:48:57.590Z,21.10
2018-04-10T04:49:29.315Z,21.10
2018-04-10T04:50:01.036Z,21.10
2018-04-10T04:50:33.577Z,21.10
2018-04-10T04:51:05.300Z,21.10
2018-04-10T04:51:37.007Z,21.10
2018-04-10T04:52:08.722Z,21.10
2018-04-10T04:52:41.291Z,21.10
2018-04-10T04:53:13.790Z,21.10
2018-04-10T04:53:45.506Z,21.10
2018-04-10T04:54:17.241Z,21.10
2018-04-10T04:54:49.744Z,21.20
2018-04-10T04:55:21.518Z,21.10
2018-04-10T04:55:53.220Z,21.10
2018-04-10T04:56:24.946Z,21.10
2018-04-10T04:56:56.719Z,21.20
2018-04-10T04:57:28.418Z,21.10
2018-04-10T04:58:00.908Z,21.10
2018-04-10T04:58:32.637Z,21.10
2018-04-10T04:59:05.148Z,21.10
2018-04-10T04:59:36.885Z,21.10
2018-04-10T05:00:08.609Z,21.20
2018-04-10T05:00:40.368Z,21.10
2018-04-10T05:01:12.082Z,21.10
2018-04-10T05:01:43.802Z,21.10
2018-04-10T05:02:16.301Z,21.10
2018-04-10T05:02:48.018Z,21.10
2018-04-10T05:03:19.742Z,21.10
2018-04-10T05:03:51.501Z,21.10
2018-04-10T05:04:23.226Z,21.20
2018-04-10T05:04:54.946Z,21.10
2018-04-10T05:05:26.687Z,21.10
2018-04-10T05:05:58.430Z,21.10
2018-04-10T05:06:30.147Z,21.10
2018-04-10T05:07:01.897Z,21.10
2018-04-10T05:07:33.616Z,21.10
2018-04-10T05:08:05.346Z,21.10
2018-04-10T05:08:37.209Z,21.10
2018-04-10T05:09:08.941Z,21.10
2018-04-10T05:09:41.423Z,21.10
2018-04-10T05:10:13.150Z,21.10
2018-04-10T05:10:44.901Z,21.10
2018-04-10T05:11:17.393Z,21.10
2018-04-10T05:11:49.118Z,21.10
2018-04-10T05:12:20.851Z,21.10
2018-04-10T05:12:52.606Z,21.10
2018-04-10T05:13:24.325Z,21.10
2018-04-10T05:13:56.085Z,21.10
2018-04-10T05:14:27.818Z,21.10
2018-04-10T05:14:59.558Z,21.10
2018-04-10T05:15:32.045Z,21.10
2018-04-10T05:16:03.774Z,21.10
2018-04-10T05:16:35.561Z,21.10
2018-04-10T05:17:07.266Z,21.10
2018-04-10T05:17:38.990Z,21.10
2018-04-10T05:18:11.474Z,21.10
2018-04-10T05:18:43.198Z,21.10
2018-04-10T05:19:15.683Z,21.10
2018-04-10T05:19:47.413Z,21.10
2018-04-10T05:20:19.904Z,21.10
2018-04-10T05:20:51.631Z,21.10
2018-04-10T05:21:23.362Z,21.10
2018-04-10T05:21:55.914Z,21.10
2018-04-10T05:22:28.403Z,21.10
2018-04-10T05:23:00.166Z,21.10
2018-04-10T05:23:32.637Z,21.10
2018-04-10T05:24:04.379Z,21.10
2018-04-10T05:24:36.110Z,21.10
2018-04-10T05:25:07.857Z,21.10
2018-04-10T05:25:39.558Z,21.10
2018-04-10T05:26:12.070Z,21.10
2018-04-10T05:26:43.831Z,21.10
2018-04-10T05:27:15.573Z,21.10
2018-04-10T05:27:50.176Z,21.10
2018-04-10T05:28:21.895Z,21.10
2018-04-10T05:28:53.625Z,21.10
2018-04-10T05:29:25.364Z,21.10
2018-04-10T05:29:57.131Z,21.10
2018-04-10T05:30:29.585Z,21.10
2018-04-10T05:31:01.314Z,21.10
2018-04-10T05:31:33.801Z,21.10
2018-04-10T05:32:05.544Z,21.10
2018-04-10T05:32:37.276Z,21.10
2018-04-10T05:33:09.003Z,21.10
2018-04-10T05:33:41.506Z,21.10
2018-04-10T05:34:13.265Z,21.10
2018-04-10T05:34:44.975Z,21.10
2018-04-10T05:35:16.721Z,21.10
2018-04-10T05:35:48.497Z,21.10
2018-04-10T05:36:20.218Z,21.10
2018-04-10T05:36:51.938Z,21.10
2018-04-10T05:37:23.695Z,21.10
2018-04-10T05:37:56.170Z,21.10
2018-04-10T05:38:27.901Z,21.10
2018-04-10T05:38:59.626Z,21.10
2018-04-10T05:39:32.129Z,21.10
2018-04-10T05:40:03.861Z,21.10
2018-04-10T05:40:35.578Z,21.10
2018-04-10T05:41:07.343Z,21.10
2018-04-10T05:41:39.123Z,21.10
2018-04-10T05:42:10.828Z,21.10
2018-04-10T05:42:42.585Z,21.10
2018-04-10T05:43:14.305Z,21.10
2018-04-10T05:43:46.030Z,21.10
2018-04-10T05:44:18.528Z,21.10
2018-04-10T05:44:50.278Z,21.10
2018-04-10T05:45:21.993Z,21.10
2018-04-10T05:45:54.482Z,21.10
2018-04-10T05:46:26.214Z,21.10
2018-04-10T05:46:58.691Z,21.10
2018-04-10T05:47:30.418Z,21.10
2018-04-10T05:48:02.137Z,21.10
2018-04-10T05:48:34.706Z,21.10
2018-04-10T05:49:07.223Z,21.10
2018-04-10T05:49:38.921Z,21.10
2018-04-10T05:50:10.646Z,21.10
2018-04-10T05:50:43.129Z,21.10
2018-04-10T05:51:15.609Z,21.10
2018-04-10T05:51:47.340Z,21.10
2018-04-10T05:52:19.063Z,21.10
2018-04-10T05:52:51.616Z,21.10
2018-04-10T05:53:23.335Z,21.10
2018-04-10T05:53:55.075Z,21.10
2018-04-10T05:54:26.810Z,21.10
2018-04-10T05:54:58.545Z,21.20
2018-04-10T05:55:30.272Z,21.10
2018-04-10T05:56:02.006Z,21.10
2018-04-10T05:56:33.789Z,21.10
2018-04-10T05:57:06.242Z,21.10
2018-04-10T05:57:37.968Z,21.10
2018-04-10T05:58:09.746Z,21.10
2018-04-10T05:58:41.485Z,21.20
2018-04-10T05:59:13.921Z,21.20
2018-04-10T05:59:45.667Z,21.20
2018-04-10T06:00:17.392Z,21.20
2018-04-10T06:00:49.115Z,21.20
2018-04-10T06:01:20.850Z,21.20
2018-04-10T06:01:52.580Z,21.20
2018-04-10T06:02:24.311Z,21.20
2018-04-10T06:02:56.056Z,21.20
2018-04-10T06:03:27.761Z,21.20
2018-04-10T06:03:59.529Z,21.20
2018-04-10T06:04:31.986Z,21.20
2018-04-10T06:05:03.714Z,21.20
2018-04-10T06:05:35.433Z,21.20
2018-04-10T06:06:07.926Z,21.30
2018-04-10T06:06:39.660Z,21.20
2018-04-10T06:07:11.383Z,21.20
2018-04-10T06:07:43.109Z,21.20
2018-04-10T06:08:14.836Z,21.20
2018-04-10T06:08:46.665Z,21.20
2018-04-10T06:09:19.145Z,21.30
2018-04-10T06:09:50.937Z,21.30
2018-04-10T06:10:22.671Z,21.30
2018-04-10T06:10:54.363Z,21.30
2018-04-10T06:11:26.100Z,21.30
2018-04-10T06:11:57.872Z,21.30
2018-04-10T06:12:29.585Z,21.30
2018-04-10T06:13:01.316Z,21.30
2018-04-10T06:13:33.077Z,21.30
2018-04-10T06:14:04.828Z,21.30
2018-04-10T06:14:36.549Z,21.30
2018-04-10T06:15:08.282Z,21.30
2018-04-10T06:15:40.810Z,21.30
2018-04-10T06:16:12.548Z,21.30
2018-04-10T06:16:44.268Z,21.30
2018-04-10T06:17:16.006Z,21.30
2018-04-10T06:17:47.741Z,21.30
2018-04-10T06:18:19.474Z,21.30
2018-04-10T06:18:51.198Z,21.30
2018-04-10T06:19:23.685Z,21.40
2018-04-10T06:19:55.415Z,21.30
2018-04-10T06:20:27.909Z,21.30
2018-04-10T06:20:59.642Z,21.40
2018-04-10T06:21:31.369Z,21.30
2018-04-10T06:22:03.115Z,21.30
2018-04-10T06:22:34.901Z,21.30
2018-04-10T06:23:06.605Z,21.40
2018-04-10T06:23:38.334Z,21.30
2018-04-10T06:24:10.099Z,21.40
2018-04-10T06:24:41.815Z,21.30
2018-04-10T06:25:13.524Z,21.40
2018-04-10T06:25:45.280Z,21.40
2018-04-10T06:26:16.994Z,21.40
2018-04-10T06:26:48.717Z,21.40
2018-04-10T06:27:20.483Z,21.40
2018-04-10T06:27:52.195Z,21.40
2018-04-10T06:28:24.689Z,21.40
2018-04-10T06:28:56.414Z,21.40
2018-04-10T06:29:28.143Z,21.40
2018-04-10T06:30:00.641Z,21.40
2018-04-10T06:30:32.374Z,21.40
2018-04-10T06:31:04.109Z,21.40
2018-04-10T06:31:35.830Z,21.40
2018-04-10T06:32:07.573Z,21.40
2018-04-10T06:32:40.093Z,21.40
2018-04-10T06:33:11.821Z,21.40
2018-04-10T06:33:43.540Z,21.40
2018-04-10T06:34:15.271Z,21.40
2018-04-10T06:34:47.824Z,21.40
2018-04-10T06:35:19.515Z,21.40
2018-04-10T06:35:51.246Z,21.40
2018-04-10T06:36:22.985Z,21.40
2018-04-10T06:36:54.722Z,21.40
2018-04-10T06:37:26.490Z,21.40
2018-04-10T06:37:58.934Z,21.40
2018-04-10T06:38:30.666Z,21.40
2018-04-10T06:39:02.429Z,21.40
2018-04-10T06:39:34.153Z,21.40
2018-04-10T06:40:06.014Z,21.50
2018-04-10T06:40:37.738Z,21.40
2018-04-10T06:41:10.214Z,21.50
2018-04-10T06:41:41.945Z,21.40
2018-04-10T06:42:14.449Z,21.50
2018-04-10T06:42:46.162Z,21.50
2018-04-10T06:43:17.909Z,21.50
2018-04-10T06:43:49.654Z,21.50
2018-04-10T06:44:21.389Z,21.50
2018-04-10T06:44:53.888Z,21.50
2018-04-10T06:45:25.612Z,21.50
2018-04-10T06:45:57.339Z,21.50
2018-04-10T06:46:29.202Z,21.50
2018-04-10T06:47:00.935Z,21.50
2018-04-10T06:47:33.414Z,21.50
2018-04-10T06:48:05.642Z,21.50
2018-04-10T06:48:38.145Z,21.50
2018-04-10T06:49:09.900Z,21.50
2018-04-10T06:49:41.630Z,21.50
2018-04-10T06:50:13.439Z,21.50
2018-04-10T06:50:45.936Z,21.50